This is the latest recevied weather packets stored in our database for station/object UB2FAY-13. If no packets are shown the sender has not sent any weather packets the latest 10 day(s).
| Time | Temp. | Humidity | Pressure | Rain* | Wind** | Luminosity | Snow |
|---|---|---|---|---|---|---|---|
| 1777336024 | 1.67° C | 80% | 1023.8 hPa | 0 mm | - | - | - |
| 1777335424 | 1.67° C | 80% | 1023.8 hPa | 0 mm | - | - | - |
| 1777334823 | 1.67° C | 80% | 1023.7 hPa | 0 mm | - | - | - |
| 1777334224 | 1.67° C | 81% | 1023.6 hPa | 0 mm | - | - | - |
| 1777333624 | 1.67° C | 81% | 1023.7 hPa | 0 mm | - | - | - |
| 1777333024 | 1.67° C | 81% | 1023.7 hPa | 0 mm | - | - | - |
| 1777332424 | 1.67° C | 81% | 1023.6 hPa | 0 mm | - | - | - |
| 1777331824 | 1.67° C | 81% | 1023.6 hPa | 0 mm | - | - | - |
| 1777331272 | 1.67° C | 81% | 1023.7 hPa | 0 mm | - | - | - |
| 1777331224 | 1.67° C | 81% | 1023.7 hPa | 0 mm | - | - | - |
| 1777330624 | 1.67° C | 81% | 1023.7 hPa | 0 mm | - | - | - |
| 1777330268 | 1.67° C | 81% | 1023.8 hPa | 0 mm | - | - | - |
| 1777330024 | 1.67° C | 81% | 1023.8 hPa | 0 mm | - | - | - |
| 1777329424 | 1.67° C | 81% | 1023.7 hPa | 0 mm | - | - | - |
| 1777328824 | 2.22° C | 81% | 1023.8 hPa | 0 mm | - | - | - |
| 1777326424 | 1.67° C | 80% | 1024.2 hPa | 0 mm | - | - | - |
| 1777325824 | 1.67° C | 80% | 1024.1 hPa | 0 mm | - | - | - |
| 1777324624 | 2.22° C | 79% | 1024 hPa | 0 mm | - | - | - |
| 1777324024 | 2.22° C | 79% | 1024.2 hPa | 0 mm | - | - | - |
| 1777312624 | 3.89° C | 67% | 1023.4 hPa | 0 mm | - | - | - |
| 1777297625 | 7.22° C | 42% | 1022.6 hPa | 0 mm | - | - | - |
| 1777295225 | 7.78° C | 41% | 1022.3 hPa | 0 mm | - | - | - |
| 1777294028 | 7.78° C | 42% | 1022.4 hPa | 0 mm | - | - | - |
| 1777291659 | 7.78° C | 42% | 1022.5 hPa | 0 mm | - | - | - |
| 1777291625 | 7.78° C | 42% | 1022.5 hPa | 0 mm | - | - | - |
* Rain latest hour (hover to see other rain measurements)
** Current wind speed in m/s (hover to see current wind gust speed)